sensor_id;sensor_type;location;lat;lon;timestamp;P1;durP1;ratioP1;P2;durP2;ratioP2
10244;SDS011;5167;52.164;10.530;2023-05-07T00:00:08;24.77;;;14.75;;
10244;SDS011;5167;52.164;10.530;2023-05-07T00:02:34;28.50;;;14.45;;
10244;SDS011;5167;52.164;10.530;2023-05-07T00:05:00;27.17;;;15.10;;
10244;SDS011;5167;52.164;10.530;2023-05-07T00:07:27;24.60;;;13.52;;
10244;SDS011;5167;52.164;10.530;2023-05-07T00:09:53;24.23;;;12.75;;
10244;SDS011;5167;52.164;10.530;2023-05-07T00:12:18;29.05;;;14.52;;
10244;SDS011;5167;52.164;10.530;2023-05-07T00:14:44;21.75;;;11.93;;
10244;SDS011;5167;52.164;10.530;2023-05-07T00:17:10;28.63;;;12.50;;
10244;SDS011;5167;52.164;10.530;2023-05-07T00:19:36;20.25;;;11.25;;
10244;SDS011;5167;52.164;10.530;2023-05-07T00:22:01;23.13;;;12.05;;
10244;SDS011;5167;52.164;10.530;2023-05-07T00:24:27;19.23;;;9.95;;
10244;SDS011;5167;52.164;10.530;2023-05-07T00:26:53;18.20;;;10.85;;
10244;SDS011;5167;52.164;10.530;2023-05-07T00:29:18;17.40;;;9.55;;
10244;SDS011;5167;52.164;10.530;2023-05-07T00:31:45;19.80;;;10.40;;
10244;SDS011;5167;52.164;10.530;2023-05-07T00:34:10;18.50;;;9.90;;
10244;SDS011;5167;52.164;10.530;2023-05-07T00:36:36;16.95;;;10.40;;
10244;SDS011;5167;52.164;10.530;2023-05-07T00:39:01;20.13;;;10.60;;
10244;SDS011;5167;52.164;10.530;2023-05-07T00:41:28;17.33;;;9.75;;
10244;SDS011;5167;52.164;10.530;2023-05-07T00:43:55;16.58;;;10.00;;
10244;SDS011;5167;52.164;10.530;2023-05-07T00:46:21;14.25;;;9.35;;
10244;SDS011;5167;52.164;10.530;2023-05-07T00:48:47;17.70;;;9.48;;
10244;SDS011;5167;52.164;10.530;2023-05-07T00:51:14;16.20;;;9.15;;
10244;SDS011;5167;52.164;10.530;2023-05-07T00:53:40;17.40;;;9.70;;
10244;SDS011;5167;52.164;10.530;2023-05-07T00:56:06;15.45;;;8.70;;
10244;SDS011;5167;52.164;10.530;2023-05-07T00:58:32;14.98;;;8.85;;
10244;SDS011;5167;52.164;10.530;2023-05-07T01:00:58;15.82;;;9.70;;
10244;SDS011;5167;52.164;10.530;2023-05-07T01:03:24;14.85;;;9.43;;
10244;SDS011;5167;52.164;10.530;2023-05-07T01:05:50;15.52;;;9.27;;
10244;SDS011;5167;52.164;10.530;2023-05-07T01:08:17;16.42;;;9.10;;
10244;SDS011;5167;52.164;10.530;2023-05-07T01:10:43;18.20;;;10.65;;
10244;SDS011;5167;52.164;10.530;2023-05-07T01:13:10;15.38;;;9.75;;
10244;SDS011;5167;52.164;10.530;2023-05-07T01:15:37;17.00;;;9.55;;
10244;SDS011;5167;52.164;10.530;2023-05-07T01:18:05;15.70;;;10.18;;
10244;SDS011;5167;52.164;10.530;2023-05-07T01:20:31;19.90;;;10.30;;
10244;SDS011;5167;52.164;10.530;2023-05-07T01:22:57;19.08;;;10.57;;
10244;SDS011;5167;52.164;10.530;2023-05-07T01:25:25;17.20;;;10.38;;
10244;SDS011;5167;52.164;10.530;2023-05-07T01:27:51;17.35;;;10.43;;
10244;SDS011;5167;52.164;10.530;2023-05-07T01:30:16;17.42;;;10.30;;
10244;SDS011;5167;52.164;10.530;2023-05-07T01:32:48;15.10;;;9.45;;
10244;SDS011;5167;52.164;10.530;2023-05-07T01:35:20;17.48;;;9.82;;
10244;SDS011;5167;52.164;10.530;2023-05-07T01:37:49;18.35;;;10.13;;
10244;SDS011;5167;52.164;10.530;2023-05-07T01:40:15;16.38;;;9.45;;
10244;SDS011;5167;52.164;10.530;2023-05-07T01:42:42;15.52;;;9.05;;
10244;SDS011;5167;52.164;10.530;2023-05-07T01:45:08;15.63;;;9.57;;
10244;SDS011;5167;52.164;10.530;2023-05-07T01:47:35;19.45;;;9.95;;
10244;SDS011;5167;52.164;10.530;2023-05-07T01:50:02;16.83;;;9.00;;
10244;SDS011;5167;52.164;10.530;2023-05-07T01:52:30;17.67;;;9.02;;
10244;SDS011;5167;52.164;10.530;2023-05-07T01:54:56;17.17;;;9.70;;
10244;SDS011;5167;52.164;10.530;2023-05-07T01:57:22;16.08;;;9.48;;
10244;SDS011;5167;52.164;10.530;2023-05-07T01:59:47;16.45;;;9.05;;
10244;SDS011;5167;52.164;10.530;2023-05-07T02:02:13;15.07;;;8.73;;
10244;SDS011;5167;52.164;10.530;2023-05-07T02:04:38;17.63;;;8.60;;
10244;SDS011;5167;52.164;10.530;2023-05-07T02:07:04;18.40;;;9.07;;
10244;SDS011;5167;52.164;10.530;2023-05-07T02:09:30;16.95;;;8.95;;
10244;SDS011;5167;52.164;10.530;2023-05-07T02:11:56;13.82;;;7.85;;
10244;SDS011;5167;52.164;10.530;2023-05-07T02:14:21;15.57;;;8.65;;
10244;SDS011;5167;52.164;10.530;2023-05-07T02:16:47;15.30;;;8.18;;
10244;SDS011;5167;52.164;10.530;2023-05-07T02:19:12;11.88;;;7.18;;
10244;SDS011;5167;52.164;10.530;2023-05-07T02:21:38;12.30;;;7.72;;
10244;SDS011;5167;52.164;10.530;2023-05-07T02:24:04;13.77;;;6.90;;
10244;SDS011;5167;52.164;10.530;2023-05-07T02:26:30;13.15;;;7.88;;
10244;SDS011;5167;52.164;10.530;2023-05-07T02:28:55;13.13;;;8.00;;
10244;SDS011;5167;52.164;10.530;2023-05-07T02:31:21;12.20;;;7.45;;
10244;SDS011;5167;52.164;10.530;2023-05-07T02:33:47;14.10;;;6.95;;
10244;SDS011;5167;52.164;10.530;2023-05-07T02:36:12;11.70;;;7.07;;
10244;SDS011;5167;52.164;10.530;2023-05-07T02:38:38;16.20;;;8.20;;
10244;SDS011;5167;52.164;10.530;2023-05-07T02:41:04;14.85;;;7.95;;
10244;SDS011;5167;52.164;10.530;2023-05-07T02:43:29;12.68;;;7.30;;
10244;SDS011;5167;52.164;10.530;2023-05-07T02:48:28;14.68;;;7.82;;
10244;SDS011;5167;52.164;10.530;2023-05-07T02:50:53;12.50;;;7.68;;
10244;SDS011;5167;52.164;10.530;2023-05-07T02:53:19;14.20;;;7.80;;
10244;SDS011;5167;52.164;10.530;2023-05-07T02:55:45;13.35;;;8.15;;
10244;SDS011;5167;52.164;10.530;2023-05-07T02:58:10;15.67;;;8.20;;
10244;SDS011;5167;52.164;10.530;2023-05-07T03:00:36;14.30;;;8.65;;
10244;SDS011;5167;52.164;10.530;2023-05-07T03:03:01;15.32;;;8.13;;
10244;SDS011;5167;52.164;10.530;2023-05-07T03:05:27;15.15;;;8.43;;
10244;SDS011;5167;52.164;10.530;2023-05-07T03:07:55;13.57;;;8.73;;
10244;SDS011;5167;52.164;10.530;2023-05-07T03:10:20;14.88;;;8.15;;
10244;SDS011;5167;52.164;10.530;2023-05-07T03:12:46;13.73;;;8.23;;
10244;SDS011;5167;52.164;10.530;2023-05-07T03:15:11;15.20;;;8.90;;
10244;SDS011;5167;52.164;10.530;2023-05-07T03:17:37;14.85;;;8.32;;
10244;SDS011;5167;52.164;10.530;2023-05-07T03:20:03;14.25;;;7.97;;
10244;SDS011;5167;52.164;10.530;2023-05-07T03:22:29;14.95;;;8.48;;
10244;SDS011;5167;52.164;10.530;2023-05-07T03:24:55;16.40;;;9.10;;
10244;SDS011;5167;52.164;10.530;2023-05-07T03:27:21;14.95;;;9.02;;
10244;SDS011;5167;52.164;10.530;2023-05-07T03:29:46;14.85;;;8.65;;
10244;SDS011;5167;52.164;10.530;2023-05-07T03:32:12;16.05;;;9.10;;
10244;SDS011;5167;52.164;10.530;2023-05-07T03:34:38;12.75;;;8.68;;
10244;SDS011;5167;52.164;10.530;2023-05-07T03:37:04;15.00;;;8.50;;
10244;SDS011;5167;52.164;10.530;2023-05-07T03:39:29;14.30;;;8.67;;
10244;SDS011;5167;52.164;10.530;2023-05-07T03:41:55;18.25;;;8.43;;
10244;SDS011;5167;52.164;10.530;2023-05-07T03:44:21;13.88;;;8.23;;
10244;SDS011;5167;52.164;10.530;2023-05-07T03:46:46;11.27;;;7.47;;
10244;SDS011;5167;52.164;10.530;2023-05-07T03:49:12;15.10;;;9.13;;
10244;SDS011;5167;52.164;10.530;2023-05-07T03:51:38;16.50;;;8.30;;
10244;SDS011;5167;52.164;10.530;2023-05-07T03:54:03;14.13;;;8.07;;
10244;SDS011;5167;52.164;10.530;2023-05-07T03:56:29;11.20;;;7.57;;
10244;SDS011;5167;52.164;10.530;2023-05-07T03:58:56;12.17;;;8.07;;
10244;SDS011;5167;52.164;10.530;2023-05-07T04:01:21;14.68;;;7.90;;
10244;SDS011;5167;52.164;10.530;2023-05-07T04:03:47;12.93;;;8.32;;
10244;SDS011;5167;52.164;10.530;2023-05-07T04:06:16;13.13;;;8.23;;
10244;SDS011;5167;52.164;10.530;2023-05-07T04:15:51;14.90;;;8.47;;
10244;SDS011;5167;52.164;10.530;2023-05-07T04:18:17;13.23;;;8.30;;
10244;SDS011;5167;52.164;10.530;2023-05-07T04:20:43;11.57;;;7.23;;
10244;SDS011;5167;52.164;10.530;2023-05-07T04:23:09;11.80;;;7.50;;
10244;SDS011;5167;52.164;10.530;2023-05-07T04:25:34;13.03;;;7.40;;
10244;SDS011;5167;52.164;10.530;2023-05-07T04:28:00;10.97;;;7.23;;
10244;SDS011;5167;52.164;10.530;2023-05-07T04:30:26;13.60;;;7.43;;
10244;SDS011;5167;52.164;10.530;2023-05-07T04:32:51;11.82;;;7.60;;
10244;SDS011;5167;52.164;10.530;2023-05-07T04:35:18;11.93;;;7.53;;
10244;SDS011;5167;52.164;10.530;2023-05-07T04:37:44;12.93;;;7.87;;
10244;SDS011;5167;52.164;10.530;2023-05-07T04:40:09;10.88;;;7.80;;
10244;SDS011;5167;52.164;10.530;2023-05-07T04:42:35;11.37;;;8.07;;
10244;SDS011;5167;52.164;10.530;2023-05-07T04:45:01;9.90;;;6.93;;
10244;SDS011;5167;52.164;10.530;2023-05-07T04:47:27;10.90;;;7.28;;
10244;SDS011;5167;52.164;10.530;2023-05-07T04:49:53;10.85;;;7.43;;
10244;SDS011;5167;52.164;10.530;2023-05-07T04:52:18;11.10;;;7.47;;
10244;SDS011;5167;52.164;10.530;2023-05-07T04:54:44;10.57;;;7.63;;
10244;SDS011;5167;52.164;10.530;2023-05-07T04:57:09;10.73;;;7.03;;
10244;SDS011;5167;52.164;10.530;2023-05-07T04:59:35;12.60;;;7.43;;
10244;SDS011;5167;52.164;10.530;2023-05-07T05:02:01;10.07;;;7.13;;
10244;SDS011;5167;52.164;10.530;2023-05-07T05:04:26;10.10;;;7.27;;
10244;SDS011;5167;52.164;10.530;2023-05-07T05:06:52;10.68;;;7.38;;
10244;SDS011;5167;52.164;10.530;2023-05-07T05:09:18;11.07;;;7.33;;
10244;SDS011;5167;52.164;10.530;2023-05-07T05:11:43;12.65;;;7.47;;
10244;SDS011;5167;52.164;10.530;2023-05-07T05:14:09;12.20;;;8.05;;
10244;SDS011;5167;52.164;10.530;2023-05-07T05:16:35;10.18;;;7.45;;
10244;SDS011;5167;52.164;10.530;2023-05-07T05:19:01;10.35;;;7.45;;
10244;SDS011;5167;52.164;10.530;2023-05-07T05:21:27;9.40;;;7.50;;
10244;SDS011;5167;52.164;10.530;2023-05-07T05:23:53;10.40;;;8.35;;
10244;SDS011;5167;52.164;10.530;2023-05-07T05:26:19;12.05;;;8.00;;
10244;SDS011;5167;52.164;10.530;2023-05-07T05:28:46;11.98;;;7.85;;
10244;SDS011;5167;52.164;10.530;2023-05-07T05:31:11;9.90;;;7.70;;
10244;SDS011;5167;52.164;10.530;2023-05-07T05:33:39;12.47;;;8.37;;
10244;SDS011;5167;52.164;10.530;2023-05-07T05:36:05;11.25;;;7.88;;
10244;SDS011;5167;52.164;10.530;2023-05-07T05:38:31;11.68;;;8.15;;
10244;SDS011;5167;52.164;10.530;2023-05-07T05:40:56;14.07;;;9.20;;
10244;SDS011;5167;52.164;10.530;2023-05-07T05:43:22;14.55;;;9.13;;
10244;SDS011;5167;52.164;10.530;2023-05-07T05:45:48;16.45;;;9.30;;
10244;SDS011;5167;52.164;10.530;2023-05-07T05:48:13;17.25;;;9.55;;
10244;SDS011;5167;52.164;10.530;2023-05-07T05:50:41;16.20;;;10.55;;
10244;SDS011;5167;52.164;10.530;2023-05-07T05:53:07;13.57;;;9.80;;
10244;SDS011;5167;52.164;10.530;2023-05-07T05:55:33;14.95;;;10.20;;
10244;SDS011;5167;52.164;10.530;2023-05-07T05:57:59;17.17;;;10.18;;
10244;SDS011;5167;52.164;10.530;2023-05-07T06:00:26;17.60;;;10.68;;
10244;SDS011;5167;52.164;10.530;2023-05-07T06:02:52;16.98;;;9.90;;
10244;SDS011;5167;52.164;10.530;2023-05-07T06:05:18;16.13;;;10.52;;
10244;SDS011;5167;52.164;10.530;2023-05-07T06:07:44;15.13;;;10.52;;
10244;SDS011;5167;52.164;10.530;2023-05-07T06:10:10;19.13;;;11.20;;
10244;SDS011;5167;52.164;10.530;2023-05-07T06:12:35;14.88;;;10.13;;
10244;SDS011;5167;52.164;10.530;2023-05-07T06:15:01;14.32;;;9.15;;
10244;SDS011;5167;52.164;10.530;2023-05-07T06:17:27;14.95;;;10.45;;
10244;SDS011;5167;52.164;10.530;2023-05-07T06:19:52;14.23;;;9.32;;
10244;SDS011;5167;52.164;10.530;2023-05-07T06:22:18;13.68;;;9.32;;
10244;SDS011;5167;52.164;10.530;2023-05-07T06:24:44;15.18;;;8.80;;
10244;SDS011;5167;52.164;10.530;2023-05-07T06:27:09;16.38;;;9.65;;
10244;SDS011;5167;52.164;10.530;2023-05-07T06:29:35;13.10;;;8.93;;
10244;SDS011;5167;52.164;10.530;2023-05-07T06:32:10;11.85;;;8.55;;
10244;SDS011;5167;52.164;10.530;2023-05-07T06:34:37;11.75;;;7.93;;
10244;SDS011;5167;52.164;10.530;2023-05-07T06:37:03;12.68;;;7.82;;
10244;SDS011;5167;52.164;10.530;2023-05-07T06:39:29;12.02;;;8.73;;
10244;SDS011;5167;52.164;10.530;2023-05-07T06:41:55;11.85;;;8.48;;
10244;SDS011;5167;52.164;10.530;2023-05-07T06:44:21;12.88;;;9.10;;
10244;SDS011;5167;52.164;10.530;2023-05-07T06:46:47;12.05;;;8.98;;
10244;SDS011;5167;52.164;10.530;2023-05-07T06:49:12;13.60;;;9.00;;
10244;SDS011;5167;52.164;10.530;2023-05-07T06:51:38;13.75;;;8.98;;
10244;SDS011;5167;52.164;10.530;2023-05-07T06:54:04;12.07;;;7.70;;
10244;SDS011;5167;52.164;10.530;2023-05-07T06:56:30;11.00;;;7.30;;
10244;SDS011;5167;52.164;10.530;2023-05-07T06:58:56;12.20;;;7.68;;
10244;SDS011;5167;52.164;10.530;2023-05-07T07:01:22;12.48;;;7.78;;
10244;SDS011;5167;52.164;10.530;2023-05-07T07:03:48;12.07;;;8.27;;
10244;SDS011;5167;52.164;10.530;2023-05-07T07:06:13;13.00;;;8.02;;
10244;SDS011;5167;52.164;10.530;2023-05-07T07:08:39;11.45;;;8.02;;
10244;SDS011;5167;52.164;10.530;2023-05-07T07:11:05;13.73;;;8.57;;
10244;SDS011;5167;52.164;10.530;2023-05-07T07:13:31;12.80;;;8.32;;
10244;SDS011;5167;52.164;10.530;2023-05-07T07:15:57;12.63;;;8.07;;
10244;SDS011;5167;52.164;10.530;2023-05-07T07:18:23;12.20;;;7.78;;
10244;SDS011;5167;52.164;10.530;2023-05-07T07:20:48;12.40;;;8.73;;
10244;SDS011;5167;52.164;10.530;2023-05-07T07:23:14;10.50;;;7.43;;
10244;SDS011;5167;52.164;10.530;2023-05-07T07:25:40;13.73;;;8.65;;
10244;SDS011;5167;52.164;10.530;2023-05-07T07:28:06;11.45;;;9.25;;
10244;SDS011;5167;52.164;10.530;2023-05-07T07:30:31;13.07;;;8.50;;
10244;SDS011;5167;52.164;10.530;2023-05-07T07:32:57;12.20;;;8.48;;
10244;SDS011;5167;52.164;10.530;2023-05-07T07:35:27;12.05;;;7.75;;
10244;SDS011;5167;52.164;10.530;2023-05-07T07:37:56;13.05;;;8.77;;
10244;SDS011;5167;52.164;10.530;2023-05-07T07:40:22;12.73;;;8.50;;
10244;SDS011;5167;52.164;10.530;2023-05-07T07:42:48;13.77;;;8.57;;
10244;SDS011;5167;52.164;10.530;2023-05-07T07:45:14;13.13;;;8.68;;
10244;SDS011;5167;52.164;10.530;2023-05-07T07:47:40;13.00;;;8.45;;
10244;SDS011;5167;52.164;10.530;2023-05-07T07:50:06;13.37;;;8.27;;
10244;SDS011;5167;52.164;10.530;2023-05-07T07:52:32;12.05;;;8.40;;
10244;SDS011;5167;52.164;10.530;2023-05-07T07:54:58;12.75;;;8.70;;
10244;SDS011;5167;52.164;10.530;2023-05-07T07:57:23;16.23;;;8.52;;
10244;SDS011;5167;52.164;10.530;2023-05-07T07:59:49;10.88;;;8.02;;
10244;SDS011;5167;52.164;10.530;2023-05-07T08:02:15;12.63;;;8.10;;
10244;SDS011;5167;52.164;10.530;2023-05-07T08:04:41;11.00;;;7.78;;
10244;SDS011;5167;52.164;10.530;2023-05-07T08:07:08;10.60;;;7.15;;
10244;SDS011;5167;52.164;10.530;2023-05-07T08:09:34;11.18;;;7.43;;
10244;SDS011;5167;52.164;10.530;2023-05-07T08:12:03;10.80;;;8.10;;
10244;SDS011;5167;52.164;10.530;2023-05-07T08:14:29;11.95;;;7.97;;
10244;SDS011;5167;52.164;10.530;2023-05-07T08:16:55;10.45;;;7.85;;
10244;SDS011;5167;52.164;10.530;2023-05-07T08:19:21;12.27;;;8.80;;
10244;SDS011;5167;52.164;10.530;2023-05-07T08:21:47;13.07;;;8.75;;
10244;SDS011;5167;52.164;10.530;2023-05-07T08:24:14;11.82;;;8.23;;
10244;SDS011;5167;52.164;10.530;2023-05-07T08:26:40;11.68;;;8.27;;
10244;SDS011;5167;52.164;10.530;2023-05-07T08:29:06;12.82;;;8.93;;
10244;SDS011;5167;52.164;10.530;2023-05-07T08:31:31;11.02;;;8.05;;
10244;SDS011;5167;52.164;10.530;2023-05-07T08:33:57;11.60;;;7.97;;
10244;SDS011;5167;52.164;10.530;2023-05-07T08:36:24;14.00;;;8.82;;
10244;SDS011;5167;52.164;10.530;2023-05-07T08:38:50;10.77;;;7.65;;
10244;SDS011;5167;52.164;10.530;2023-05-07T08:41:16;12.55;;;8.52;;
10244;SDS011;5167;52.164;10.530;2023-05-07T08:43:42;12.57;;;8.98;;
10244;SDS011;5167;52.164;10.530;2023-05-07T08:46:13;11.20;;;7.65;;
10244;SDS011;5167;52.164;10.530;2023-05-07T08:48:49;12.70;;;8.98;;
10244;SDS011;5167;52.164;10.530;2023-05-07T08:51:16;11.52;;;9.05;;
10244;SDS011;5167;52.164;10.530;2023-05-07T08:53:46;12.90;;;8.55;;
10244;SDS011;5167;52.164;10.530;2023-05-07T08:56:14;14.07;;;9.00;;
10244;SDS011;5167;52.164;10.530;2023-05-07T08:58:40;15.65;;;8.93;;
10244;SDS011;5167;52.164;10.530;2023-05-07T09:01:10;12.25;;;8.82;;
10244;SDS011;5167;52.164;10.530;2023-05-07T09:03:39;10.80;;;7.65;;
10244;SDS011;5167;52.164;10.530;2023-05-07T09:06:05;10.95;;;8.02;;
10244;SDS011;5167;52.164;10.530;2023-05-07T09:08:32;11.02;;;7.90;;
10244;SDS011;5167;52.164;10.530;2023-05-07T09:10:59;10.45;;;7.25;;
10244;SDS011;5167;52.164;10.530;2023-05-07T09:13:25;10.38;;;7.85;;
10244;SDS011;5167;52.164;10.530;2023-05-07T09:15:52;11.45;;;7.38;;
10244;SDS011;5167;52.164;10.530;2023-05-07T09:18:17;9.05;;;7.70;;
10244;SDS011;5167;52.164;10.530;2023-05-07T09:20:43;11.20;;;7.28;;
10244;SDS011;5167;52.164;10.530;2023-05-07T09:23:09;10.23;;;7.03;;
10244;SDS011;5167;52.164;10.530;2023-05-07T09:25:35;9.50;;;7.45;;
10244;SDS011;5167;52.164;10.530;2023-05-07T09:28:02;9.82;;;6.93;;
10244;SDS011;5167;52.164;10.530;2023-05-07T09:30:30;10.38;;;7.05;;
10244;SDS011;5167;52.164;10.530;2023-05-07T09:32:59;8.68;;;7.00;;
10244;SDS011;5167;52.164;10.530;2023-05-07T09:35:26;8.52;;;7.32;;
10244;SDS011;5167;52.164;10.530;2023-05-07T09:37:55;13.27;;;7.68;;
10244;SDS011;5167;52.164;10.530;2023-05-07T09:40:24;8.73;;;6.28;;
10244;SDS011;5167;52.164;10.530;2023-05-07T09:42:51;13.85;;;7.15;;
10244;SDS011;5167;52.164;10.530;2023-05-07T09:45:27;9.52;;;6.35;;
10244;SDS011;5167;52.164;10.530;2023-05-07T09:47:54;9.02;;;6.55;;
10244;SDS011;5167;52.164;10.530;2023-05-07T09:50:24;10.80;;;6.30;;
10244;SDS011;5167;52.164;10.530;2023-05-07T09:52:53;9.20;;;6.80;;
10244;SDS011;5167;52.164;10.530;2023-05-07T09:55:20;8.88;;;6.80;;
10244;SDS011;5167;52.164;10.530;2023-05-07T09:57:48;10.05;;;7.43;;
10244;SDS011;5167;52.164;10.530;2023-05-07T10:00:15;10.75;;;6.57;;
10244;SDS011;5167;52.164;10.530;2023-05-07T10:02:44;9.15;;;7.03;;
10244;SDS011;5167;52.164;10.530;2023-05-07T10:05:14;8.55;;;7.03;;
10244;SDS011;5167;52.164;10.530;2023-05-07T10:07:40;10.32;;;7.13;;
10244;SDS011;5167;52.164;10.530;2023-05-07T10:10:06;9.52;;;6.63;;
10244;SDS011;5167;52.164;10.530;2023-05-07T10:12:32;10.65;;;6.57;;
10244;SDS011;5167;52.164;10.530;2023-05-07T10:15:07;9.55;;;7.05;;
10244;SDS011;5167;52.164;10.530;2023-05-07T10:17:40;8.77;;;6.35;;
10244;SDS011;5167;52.164;10.530;2023-05-07T10:20:06;9.65;;;7.03;;
10244;SDS011;5167;52.164;10.530;2023-05-07T10:22:32;8.18;;;6.30;;
10244;SDS011;5167;52.164;10.530;2023-05-07T10:25:05;8.85;;;6.45;;
10244;SDS011;5167;52.164;10.530;2023-05-07T10:27:39;9.88;;;6.63;;
10244;SDS011;5167;52.164;10.530;2023-05-07T10:32:47;10.38;;;7.00;;
10244;SDS011;5167;52.164;10.530;2023-05-07T10:35:19;10.30;;;6.78;;
10244;SDS011;5167;52.164;10.530;2023-05-07T10:37:47;8.98;;;6.30;;
10244;SDS011;5167;52.164;10.530;2023-05-07T10:40:13;6.90;;;5.55;;
10244;SDS011;5167;52.164;10.530;2023-05-07T10:42:52;6.95;;;5.85;;
10244;SDS011;5167;52.164;10.530;2023-05-07T10:45:29;8.10;;;5.78;;
10244;SDS011;5167;52.164;10.530;2023-05-07T10:48:05;7.70;;;6.32;;
10244;SDS011;5167;52.164;10.530;2023-05-07T10:50:35;6.93;;;5.93;;
10244;SDS011;5167;52.164;10.530;2023-05-07T10:55:52;7.20;;;5.22;;
10244;SDS011;5167;52.164;10.530;2023-05-07T10:58:43;9.18;;;5.72;;
10244;SDS011;5167;52.164;10.530;2023-05-07T11:01:09;7.28;;;5.93;;
10244;SDS011;5167;52.164;10.530;2023-05-07T11:03:37;7.72;;;4.82;;
10244;SDS011;5167;52.164;10.530;2023-05-07T11:06:39;5.65;;;5.05;;
10244;SDS011;5167;52.164;10.530;2023-05-07T11:09:05;6.70;;;5.43;;
10244;SDS011;5167;52.164;10.530;2023-05-07T11:11:46;6.97;;;5.30;;
10244;SDS011;5167;52.164;10.530;2023-05-07T11:17:06;7.57;;;5.57;;
10244;SDS011;5167;52.164;10.530;2023-05-07T11:20:05;6.70;;;5.28;;
10244;SDS011;5167;52.164;10.530;2023-05-07T11:24:57;5.90;;;5.30;;
10244;SDS011;5167;52.164;10.530;2023-05-07T11:27:25;6.20;;;5.47;;
10244;SDS011;5167;52.164;10.530;2023-05-07T11:29:51;6.35;;;5.65;;
10244;SDS011;5167;52.164;10.530;2023-05-07T11:32:24;8.40;;;6.60;;
10244;SDS011;5167;52.164;10.530;2023-05-07T11:34:52;8.52;;;7.32;;
10244;SDS011;5167;52.164;10.530;2023-05-07T11:37:18;9.88;;;7.30;;
10244;SDS011;5167;52.164;10.530;2023-05-07T11:39:44;7.85;;;6.57;;
10244;SDS011;5167;52.164;10.530;2023-05-07T11:44:51;9.27;;;7.68;;
10244;SDS011;5167;52.164;10.530;2023-05-07T11:47:17;8.43;;;7.45;;
10244;SDS011;5167;52.164;10.530;2023-05-07T11:49:46;11.30;;;8.68;;
10244;SDS011;5167;52.164;10.530;2023-05-07T11:52:16;9.07;;;7.40;;
10244;SDS011;5167;52.164;10.530;2023-05-07T11:54:52;12.38;;;8.07;;
10244;SDS011;5167;52.164;10.530;2023-05-07T11:57:22;8.15;;;7.32;;
10244;SDS011;5167;52.164;10.530;2023-05-07T11:59:52;8.68;;;7.38;;
10244;SDS011;5167;52.164;10.530;2023-05-07T12:02:21;10.77;;;8.27;;
10244;SDS011;5167;52.164;10.530;2023-05-07T12:04:47;10.23;;;7.82;;
10244;SDS011;5167;52.164;10.530;2023-05-07T12:07:13;8.80;;;7.68;;
10244;SDS011;5167;52.164;10.530;2023-05-07T12:09:42;10.27;;;8.25;;
10244;SDS011;5167;52.164;10.530;2023-05-07T12:12:09;10.90;;;8.57;;
10244;SDS011;5167;52.164;10.530;2023-05-07T12:14:41;9.65;;;8.48;;
10244;SDS011;5167;52.164;10.530;2023-05-07T12:17:08;10.15;;;8.38;;
10244;SDS011;5167;52.164;10.530;2023-05-07T12:19:35;8.93;;;7.22;;
10244;SDS011;5167;52.164;10.530;2023-05-07T12:22:05;10.10;;;8.55;;
10244;SDS011;5167;52.164;10.530;2023-05-07T12:24:45;8.85;;;7.95;;
10244;SDS011;5167;52.164;10.530;2023-05-07T12:27:12;10.30;;;7.78;;
10244;SDS011;5167;52.164;10.530;2023-05-07T12:29:48;10.50;;;7.68;;
10244;SDS011;5167;52.164;10.530;2023-05-07T12:32:18;7.68;;;6.88;;
10244;SDS011;5167;52.164;10.530;2023-05-07T12:34:46;11.20;;;8.10;;
10244;SDS011;5167;52.164;10.530;2023-05-07T12:37:14;9.30;;;7.22;;
10244;SDS011;5167;52.164;10.530;2023-05-07T12:40:02;8.88;;;6.93;;
10244;SDS011;5167;52.164;10.530;2023-05-07T12:42:32;9.43;;;7.13;;
10244;SDS011;5167;52.164;10.530;2023-05-07T12:45:07;7.93;;;6.18;;
10244;SDS011;5167;52.164;10.530;2023-05-07T12:47:36;9.88;;;7.00;;
10244;SDS011;5167;52.164;10.530;2023-05-07T12:50:04;8.35;;;6.03;;
10244;SDS011;5167;52.164;10.530;2023-05-07T12:52:31;7.38;;;5.95;;
10244;SDS011;5167;52.164;10.530;2023-05-07T12:55:03;7.93;;;6.60;;
10244;SDS011;5167;52.164;10.530;2023-05-07T12:57:39;6.70;;;5.90;;
10244;SDS011;5167;52.164;10.530;2023-05-07T13:00:06;8.75;;;6.65;;
10244;SDS011;5167;52.164;10.530;2023-05-07T13:02:42;8.75;;;6.53;;
10244;SDS011;5167;52.164;10.530;2023-05-07T13:05:11;9.05;;;5.80;;
10244;SDS011;5167;52.164;10.530;2023-05-07T13:07:37;6.70;;;5.60;;
10244;SDS011;5167;52.164;10.530;2023-05-07T13:10:03;7.95;;;6.50;;
10244;SDS011;5167;52.164;10.530;2023-05-07T13:12:29;10.15;;;6.38;;
10244;SDS011;5167;52.164;10.530;2023-05-07T13:14:55;8.25;;;6.18;;
10244;SDS011;5167;52.164;10.530;2023-05-07T13:17:20;7.05;;;5.88;;
10244;SDS011;5167;52.164;10.530;2023-05-07T13:19:46;7.18;;;5.50;;
10244;SDS011;5167;52.164;10.530;2023-05-07T13:22:15;9.52;;;6.68;;
10244;SDS011;5167;52.164;10.530;2023-05-07T13:24:40;8.88;;;6.18;;
10244;SDS011;5167;52.164;10.530;2023-05-07T13:27:08;7.78;;;6.10;;
10244;SDS011;5167;52.164;10.530;2023-05-07T13:29:34;8.20;;;6.78;;
10244;SDS011;5167;52.164;10.530;2023-05-07T13:31:59;7.72;;;6.18;;
10244;SDS011;5167;52.164;10.530;2023-05-07T13:34:25;6.88;;;5.93;;
10244;SDS011;5167;52.164;10.530;2023-05-07T13:36:50;9.10;;;6.80;;
10244;SDS011;5167;52.164;10.530;2023-05-07T13:39:16;6.72;;;5.88;;
10244;SDS011;5167;52.164;10.530;2023-05-07T13:41:42;12.05;;;7.43;;
10244;SDS011;5167;52.164;10.530;2023-05-07T13:44:08;9.23;;;6.47;;
10244;SDS011;5167;52.164;10.530;2023-05-07T13:46:33;8.88;;;7.00;;
10244;SDS011;5167;52.164;10.530;2023-05-07T13:48:59;8.45;;;6.38;;
10244;SDS011;5167;52.164;10.530;2023-05-07T13:51:25;10.82;;;7.03;;
10244;SDS011;5167;52.164;10.530;2023-05-07T13:53:50;10.75;;;6.55;;
10244;SDS011;5167;52.164;10.530;2023-05-07T13:56:17;8.02;;;6.47;;
10244;SDS011;5167;52.164;10.530;2023-05-07T13:58:43;7.07;;;5.68;;
10244;SDS011;5167;52.164;10.530;2023-05-07T14:01:08;9.82;;;6.18;;
10244;SDS011;5167;52.164;10.530;2023-05-07T14:03:34;7.55;;;6.47;;
10244;SDS011;5167;52.164;10.530;2023-05-07T14:06:02;12.45;;;7.25;;
10244;SDS011;5167;52.164;10.530;2023-05-07T14:08:28;8.30;;;6.30;;
10244;SDS011;5167;52.164;10.530;2023-05-07T14:10:54;9.63;;;6.70;;
10244;SDS011;5167;52.164;10.530;2023-05-07T14:13:20;9.38;;;6.97;;
10244;SDS011;5167;52.164;10.530;2023-05-07T14:15:45;9.85;;;6.80;;
10244;SDS011;5167;52.164;10.530;2023-05-07T14:18:13;10.25;;;6.63;;
10244;SDS011;5167;52.164;10.530;2023-05-07T14:20:39;10.43;;;6.40;;
10244;SDS011;5167;52.164;10.530;2023-05-07T14:23:07;11.27;;;7.93;;
10244;SDS011;5167;52.164;10.530;2023-05-07T14:25:33;17.13;;;7.32;;
10244;SDS011;5167;52.164;10.530;2023-05-07T14:27:58;11.65;;;7.38;;
10244;SDS011;5167;52.164;10.530;2023-05-07T14:30:24;9.48;;;7.03;;
10244;SDS011;5167;52.164;10.530;2023-05-07T14:32:50;8.63;;;6.22;;
10244;SDS011;5167;52.164;10.530;2023-05-07T14:35:16;9.88;;;6.38;;
10244;SDS011;5167;52.164;10.530;2023-05-07T14:37:42;7.53;;;5.93;;
10244;SDS011;5167;52.164;10.530;2023-05-07T14:40:09;9.00;;;6.70;;
10244;SDS011;5167;52.164;10.530;2023-05-07T14:42:35;8.85;;;6.50;;
10244;SDS011;5167;52.164;10.530;2023-05-07T14:45:00;7.40;;;6.22;;
10244;SDS011;5167;52.164;10.530;2023-05-07T14:47:27;9.30;;;6.65;;
10244;SDS011;5167;52.164;10.530;2023-05-07T14:49:52;7.05;;;5.97;;
10244;SDS011;5167;52.164;10.530;2023-05-07T14:52:19;8.20;;;6.32;;
10244;SDS011;5167;52.164;10.530;2023-05-07T14:54:45;8.88;;;6.80;;
10244;SDS011;5167;52.164;10.530;2023-05-07T14:57:10;9.18;;;6.07;;
10244;SDS011;5167;52.164;10.530;2023-05-07T14:59:41;8.20;;;6.40;;